createdAt,value
2023-02-05T10:42:27.893Z,140409.25
2023-02-05T10:47:44.663Z,140437.47
2023-02-05T10:52:50.759Z,140410.47
2023-02-05T10:57:55.897Z,140424.00
2023-02-05T11:02:59.801Z,140414.16
2023-02-05T11:08:03.424Z,140435.03
2023-02-05T11:13:21.389Z,140452.22
2023-02-05T11:18:27.531Z,140524.59
2023-02-05T11:23:33.042Z,140535.69
2023-02-05T11:28:39.675Z,140518.47
2023-02-05T11:33:43.124Z,140527.09
2023-02-05T11:38:47.725Z,140556.56
2023-02-05T11:43:54.028Z,140540.59
2023-02-05T11:48:59.424Z,140552.84
2023-02-05T11:54:04.833Z,140506.22
2023-02-05T11:59:20.209Z,140517.25
2023-02-05T12:04:24.186Z,140479.19
2023-02-05T12:09:28.369Z,140589.72
2023-02-05T12:14:39.042Z,140625.34
2023-02-05T12:19:48.359Z,140594.63
2023-02-05T12:25:01.188Z,140597.09
2023-02-05T12:30:18.977Z,140663.41
2023-02-05T12:35:28.160Z,140660.97
2023-02-05T12:40:40.477Z,140669.59
2023-02-05T12:45:53.179Z,140621.66
2023-02-05T12:51:06.312Z,140652.38
2023-02-05T12:56:23.189Z,140663.41
2023-02-05T13:01:33.083Z,140692.91
2023-02-05T13:06:40.488Z,140668.38
2023-02-05T13:11:47.259Z,140635.16
2023-02-05T13:16:53.807Z,140631.47
2023-02-05T13:22:15.678Z,140670.81
2023-02-05T13:27:39.795Z,140679.41
2023-02-05T13:32:50.219Z,140654.84
2023-02-05T13:38:15.911Z,140605.69
2023-02-05T13:43:36.762Z,140622.88
2023-02-05T13:48:55.016Z,140606.91
2023-02-05T13:54:12.527Z,140638.88
2023-02-05T13:59:18.339Z,140600.78
2023-02-05T14:04:24.604Z,140577.41
2023-02-05T14:09:34.959Z,140594.63
2023-02-05T14:14:38.911Z,140565.16
2023-02-05T14:19:56.961Z,140562.72
2023-02-05T14:25:02.092Z,140503.75
2023-02-05T14:30:24.369Z,140457.13
2023-02-05T14:35:29.014Z,140424.00
2023-02-05T14:40:36.301Z,140410.47
2023-02-05T14:45:44.039Z,140379.78
2023-02-05T14:50:47.552Z,140376.13
2023-02-05T14:55:57.654Z,140366.31
2023-02-05T15:01:19.977Z,140325.78
2023-02-05T15:06:26.439Z,140320.88
2023-02-05T15:11:38.181Z,140306.19
2023-02-05T15:16:41.552Z,140291.44
2023-02-05T15:21:50.720Z,140295.13
2023-02-05T15:26:58.191Z,140273.03
2023-02-05T15:32:03.158Z,140265.69
2023-02-05T15:37:08.033Z,140216.59
2023-02-05T15:42:17.357Z,140205.56
2023-02-05T15:47:24.052Z,139998.47
2023-02-05T15:52:29.068Z,140168.84
2023-02-05T15:57:34.907Z,140146.75
2023-02-05T16:02:45.833Z,140107.53
2023-02-05T16:07:55.507Z,140089.16
2023-02-05T16:13:01.358Z,140053.59
2023-02-05T16:18:06.405Z,140025.41
2023-02-05T16:23:13.731Z,140007.03
2023-02-05T16:28:20.683Z,139989.84
2023-02-05T16:33:27.963Z,139986.19
2023-02-05T16:38:31.900Z,139965.34
2023-02-05T16:43:39.169Z,139927.41
2023-02-05T16:48:49.169Z,139905.34
2023-02-05T16:53:52.644Z,139890.69
2023-02-05T16:58:58.664Z,139896.78
2023-02-05T17:04:02.299Z,139868.63
2023-02-05T17:09:06.328Z,139857.63
2023-02-05T17:14:22.207Z,139824.50
2023-02-05T17:19:27.112Z,139774.34
2023-02-05T17:24:30.999Z,139759.63
2023-02-05T17:29:36.339Z,139738.81
2023-02-05T17:34:40.120Z,139733.94
2023-02-05T17:39:43.597Z,139729.03
2023-02-05T17:44:48.680Z,139713.09
2023-02-05T17:49:52.249Z,139699.66
2023-02-05T17:54:55.791Z,139696.00
2023-02-05T18:00:01.000Z,139686.22
2023-02-05T18:05:05.138Z,139675.22
2023-02-05T18:10:11.461Z,139666.69
2023-02-05T18:15:16.264Z,139664.22
2023-02-05T18:20:20.942Z,139660.53
2023-02-05T18:25:26.480Z,139658.09
2023-02-05T18:30:43.171Z,139650.75
2023-02-05T18:35:51.837Z,139627.50
2023-02-05T18:40:58.189Z,139604.25
2023-02-05T18:46:07.061Z,139588.38
2023-02-05T18:51:11.713Z,139543.09
2023-02-05T18:56:19.728Z,139539.44
2023-02-05T19:01:25.476Z,139527.22
2023-02-05T19:06:29.629Z,139516.19
2023-02-05T19:11:41.419Z,139519.84
2023-02-05T19:16:51.594Z,139516.19
2023-02-05T19:22:02.169Z,139523.56
2023-02-05T19:27:05.904Z,139502.75
2023-02-05T19:32:11.260Z,139489.28
2023-02-05T19:37:14.972Z,139435.50
2023-02-05T19:42:18.430Z,139412.31
2023-02-05T19:47:23.425Z,139379.28
2023-02-05T19:52:27.093Z,139376.84
2023-02-05T19:57:32.207Z,139359.75
2023-02-05T20:02:39.114Z,139352.41
2023-02-05T20:07:42.793Z,139346.28
2023-02-05T20:12:46.393Z,139349.97
2023-02-05T20:17:52.398Z,139324.28
2023-02-05T20:22:56.373Z,139342.63
2023-02-05T20:28:02.582Z,139362.19
2023-02-05T20:33:11.656Z,139362.19
2023-02-05T20:38:15.264Z,139369.53
2023-02-05T20:43:18.754Z,139363.44
2023-02-05T20:48:23.719Z,139331.66
2023-02-05T20:53:27.280Z,139324.28
2023-02-05T20:58:31.229Z,139299.88
2023-02-05T21:03:36.772Z,139284.00
2023-02-05T21:08:41.208Z,139290.09
2023-02-05T21:13:54.615Z,139292.53
2023-02-05T21:19:04.056Z,139286.44
2023-02-05T21:24:13.592Z,139279.09
2023-02-05T21:29:22.966Z,139258.31
2023-02-05T21:34:38.864Z,139259.53
2023-02-05T21:39:46.846Z,139255.88
2023-02-05T21:44:53.844Z,139218.09
2023-02-05T21:49:58.935Z,139099.59
2023-02-05T21:55:02.550Z,139135.03
2023-02-05T22:00:11.077Z,139084.97
2023-02-05T22:05:19.821Z,139067.88
2023-02-05T22:10:26.109Z,139071.53
2023-02-05T22:15:32.419Z,139064.22
2023-02-05T22:20:37.306Z,139064.22
2023-02-05T22:25:46.672Z,139069.09
2023-02-05T22:30:50.337Z,139067.88
2023-02-05T22:35:55.168Z,139067.88
2023-02-05T22:40:58.475Z,139060.56
2023-02-05T22:46:04.248Z,139053.25
2023-02-05T22:51:10.313Z,139044.66
